Time;durP1;ratioP1;P1;durP2;ratioP2;P2;SDS_P1;SDS_P2;PMS_P1;PMS_P2;Temp;Humidity;BMP_temperature;BMP_pressure;BME280_temperature;BME280_humidity;BME280_pressure;Samples;Min_cycle;Max_cycle;Signal;HPM_P1;HPM_P2
2023/01/15 00:00:56;;;;;;;;;;;0.40;99.90;;;;;;5137992;27;19908;-82
2023/01/15 00:03:21;;;;;;;;;;;0.50;99.90;;;;;;5120726;27;20283;-84
2023/01/15 00:05:48;;;;;;;;;;;0.50;99.90;;;;;;5138540;27;19922;-82
2023/01/15 00:08:16;;;;;;;;;;;0.50;99.90;;;;;;5121507;27;19911;-81
2023/01/15 00:10:41;;;;;;;;;;;0.50;99.90;;;;;;5139527;27;19919;-82
2023/01/15 00:13:07;;;;;;;;;;;0.40;99.90;;;;;;5120885;27;19911;-82
2023/01/15 00:15:33;;;;;;;;;;;0.50;99.90;;;;;;5120977;27;19942;-82
2023/01/15 00:17:58;;;;;;;;;;;0.50;99.90;;;;;;5137881;27;19912;-81
2023/01/15 00:20:24;;;;;;;;;;;0.50;99.90;;;;;;5138890;27;19911;-81
2023/01/15 00:22:50;;;;;;;;;;;0.50;99.90;;;;;;5137557;27;19912;-82
2023/01/15 00:27:59;;;;;;;;;;;0.60;99.90;;;;;;5138060;27;19934;-81
2023/01/15 00:30:25;;;;;;;;;;;0.50;99.90;;;;;;5138694;27;20411;-82
2023/01/15 00:32:50;;;;;;;;;;;0.50;99.90;;;;;;5138736;27;20279;-82
2023/01/15 00:35:17;;;;;;;;;;;0.50;99.90;;;;;;5120257;27;20012;-82
2023/01/15 00:37:43;;;;;;;;;;;0.50;99.90;;;;;;5137541;27;20311;-82
2023/01/15 00:40:09;;;;;;;;;;;0.50;99.90;;;;;;5137330;27;20033;-82
2023/01/15 00:42:35;;;;;;;;;;;0.50;99.90;;;;;;5137195;27;19934;-82
2023/01/15 00:45:08;;;;;;;;;;;0.50;99.90;;;;;;5137369;27;19915;-82
2023/01/15 00:47:35;;;;;;;;;;;0.50;99.90;;;;;;5137245;27;19907;-82
2023/01/15 00:50:00;;;;;;;;;;;0.50;99.90;;;;;;5137233;27;19981;-82
2023/01/15 00:52:26;;;;;;;;;;;0.50;99.90;;;;;;5137458;27;20355;-82
2023/01/15 00:54:52;;;;;;;;;;;0.50;99.90;;;;;;5138271;27;19951;-82
2023/01/15 00:57:18;;;;;;;;;;;0.50;99.90;;;;;;5120115;27;19916;-82
2023/01/15 00:59:44;;;;;;;;;;;0.50;99.90;;;;;;5137586;27;19915;-80
2023/01/15 01:02:10;;;;;;;;;;;0.50;99.90;;;;;;5140607;27;19914;-80
2023/01/15 01:04:35;;;;;;;;;;;0.60;99.90;;;;;;5138366;27;19965;-80
2023/01/15 01:07:01;;;;;;;;;;;0.60;99.90;;;;;;5121202;27;19911;-80
2023/01/15 01:09:26;;;;;;;;;;;0.60;99.90;;;;;;5139744;27;20276;-80
2023/01/15 01:11:52;;;;;;;;;;;0.60;99.90;;;;;;5121226;27;19911;-80
2023/01/15 01:14:17;;;;;;;;;;;0.60;99.90;;;;;;5121252;27;19922;-79
2023/01/15 01:16:43;;;;;;;;;;;0.60;99.90;;;;;;5120832;27;19911;-80
2023/01/15 01:19:11;;;;;;;;;;;0.60;99.90;;;;;;5137929;27;19912;-80
2023/01/15 01:21:37;;;;;;;;;;;0.60;99.90;;;;;;5137938;27;19946;-80
2023/01/15 01:24:04;;;;;;;;;;;0.60;99.90;;;;;;5137928;27;19976;-80
2023/01/15 01:26:30;;;;;;;;;;;0.60;99.90;;;;;;5120907;27;19926;-80
2023/01/15 01:28:56;;;;;;;;;;;0.70;99.90;;;;;;5138029;27;20009;-80
2023/01/15 01:31:22;;;;;;;;;;;0.60;99.90;;;;;;5138046;27;20323;-80
2023/01/15 01:33:51;;;;;;;;;;;0.70;99.90;;;;;;5138230;27;19907;-80
2023/01/15 01:36:17;;;;;;;;;;;0.70;99.90;;;;;;5137607;27;20359;-80
2023/01/15 01:38:43;;;;;;;;;;;0.70;99.90;;;;;;5137750;27;19929;-80
2023/01/15 01:41:08;;;;;;;;;;;0.70;99.90;;;;;;5120612;27;20351;-80
2023/01/15 01:43:50;;;;;;;;;;;0.70;99.90;;;;;;5120492;27;19951;-80
2023/01/15 01:46:16;;;;;;;;;;;0.70;99.90;;;;;;5138649;27;19911;-80
2023/01/15 01:48:41;;;;;;;;;;;0.70;99.90;;;;;;5139106;27;19956;-80
2023/01/15 01:51:07;;;;;;;;;;;0.70;99.90;;;;;;5120767;27;19937;-80
2023/01/15 01:53:33;;;;;;;;;;;0.80;99.90;;;;;;5137240;27;20385;-80
2023/01/15 01:55:59;;;;;;;;;;;0.80;99.90;;;;;;5120236;27;20014;-80
2023/01/15 01:58:27;;;;;;;;;;;0.70;99.90;;;;;;5138405;27;19971;-80
2023/01/15 02:00:53;;;;;;;;;;;0.80;99.90;;;;;;5137450;27;19976;-80
2023/01/15 02:03:20;;;;;;;;;;;0.80;99.90;;;;;;5120852;27;20378;-81
2023/01/15 02:05:49;;;;;;;;;;;0.80;99.90;;;;;;5120060;27;19958;-81
2023/01/15 02:08:14;;;;;;;;;;;0.80;99.90;;;;;;5119205;28;19908;-81
2023/01/15 02:10:40;;;;;;;;;;;0.80;99.90;;;;;;5117451;28;20014;-81
2023/01/15 02:13:05;;;;;;;;;;;0.80;99.90;;;;;;5100697;28;19963;-81
2023/01/15 02:15:39;;;;;;;;;;;0.80;99.90;;;;;;5117848;28;19922;-81
2023/01/15 02:18:09;;;;;;;;;;;0.90;99.90;;;;;;5120279;28;20252;-81
2023/01/15 02:20:38;;;;;;;;;;;0.90;99.90;;;;;;5118759;28;19918;-81
2023/01/15 02:23:27;;;;;;;;;;;0.90;99.90;;;;;;5117440;28;19912;-81
2023/01/15 02:26:01;;;;;;;;;;;0.90;99.90;;;;;;5116972;28;19923;-81
2023/01/15 02:28:32;;;;;;;;;;;0.90;99.90;;;;;;5118872;28;19960;-81
2023/01/15 02:31:20;;;;;;;;;;;0.90;99.90;;;;;;5119004;28;20421;-81
2023/01/15 02:34:04;;;;;;;;;;;1.00;99.90;;;;;;5112477;28;19953;-81
2023/01/15 02:36:36;;;;;;;;;;;1.00;99.90;;;;;;5115979;28;19914;-81
2023/01/15 02:39:04;;;;;;;;;;;1.00;99.90;;;;;;5115315;28;19908;-81
2023/01/15 02:41:35;;;;;;;;;;;1.00;99.90;;;;;;5116622;28;19943;-81
2023/01/15 02:44:03;;;;;;;;;;;1.00;99.90;;;;;;5117899;28;19922;-81
2023/01/15 02:46:31;;;;;;;;;;;1.10;99.90;;;;;;5116722;28;20420;-81
2023/01/15 02:48:57;;;;;;;;;;;1.00;99.90;;;;;;5117320;28;19908;-81
2023/01/15 02:51:24;;;;;;;;;;;1.10;99.90;;;;;;5115580;28;20005;-81
2023/01/15 02:53:52;;;;;;;;;;;1.10;99.90;;;;;;5116094;28;19908;-81
2023/01/15 02:56:19;;;;;;;;;;;1.10;99.90;;;;;;5115934;28;19912;-81
2023/01/15 02:58:46;;;;;;;;;;;1.10;99.90;;;;;;5116029;28;20360;-83
2023/01/15 03:01:18;;;;;;;;;;;1.10;99.90;;;;;;5111869;28;19908;-82
2023/01/15 03:03:52;;;;;;;;;;;1.10;99.90;;;;;;5114346;28;19998;-82
2023/01/15 03:06:23;;;;;;;;;;;1.10;99.90;;;;;;5113299;28;20264;-83
2023/01/15 03:08:49;;;;;;;;;;;1.10;99.90;;;;;;5114791;28;19908;-83
2023/01/15 03:11:17;;;;;;;;;;;1.10;99.90;;;;;;5113808;28;19912;-83
2023/01/15 03:13:47;;;;;;;;;;;1.10;99.90;;;;;;5115066;28;19946;-83
2023/01/15 03:16:34;;;;;;;;;;;1.10;99.90;;;;;;5114460;28;19908;-83
2023/01/15 03:19:00;;;;;;;;;;;1.10;99.90;;;;;;5114791;28;19908;-83
2023/01/15 03:21:29;;;;;;;;;;;1.10;99.90;;;;;;5116036;28;19908;-83
2023/01/15 03:23:55;;;;;;;;;;;1.10;99.90;;;;;;5115396;28;19907;-83
2023/01/15 03:26:20;;;;;;;;;;;1.10;99.90;;;;;;5117477;28;20268;-83
2023/01/15 03:28:47;;;;;;;;;;;1.10;99.90;;;;;;5113751;28;19912;-83
2023/01/15 03:31:13;;;;;;;;;;;1.10;99.90;;;;;;5112768;28;19912;-83
2023/01/15 03:33:40;;;;;;;;;;;1.10;99.90;;;;;;5114459;28;19977;-83
2023/01/15 03:36:05;;;;;;;;;;;1.10;99.90;;;;;;5113251;28;19943;-83
2023/01/15 03:38:34;;;;;;;;;;;1.10;99.90;;;;;;5113580;28;20371;-83
2023/01/15 03:40:59;;;;;;;;;;;1.10;99.90;;;;;;5113414;28;19907;-83
2023/01/15 03:43:51;;;;;;;;;;;1.10;99.90;;;;;;5114450;28;19993;-83
2023/01/15 03:46:16;;;;;;;;;;;1.10;99.90;;;;;;5089890;28;19918;-83
2023/01/15 03:49:07;;;;;;;;;;;1.10;99.90;;;;;;5114173;28;19912;-83
2023/01/15 03:51:38;;;;;;;;;;;1.10;99.90;;;;;;5114781;28;19930;-83
2023/01/15 03:54:06;;;;;;;;;;;1.10;99.90;;;;;;5113117;28;19912;-83
2023/01/15 03:56:31;;;;;;;;;;;1.10;99.90;;;;;;5113183;28;19908;-83
2023/01/15 03:59:29;;;;;;;;;;;1.10;99.90;;;;;;5112949;28;19972;-83
2023/01/15 04:01:56;;;;;;;;;;;1.10;99.90;;;;;;5079607;28;19908;-83
2023/01/15 04:04:22;;;;;;;;;;;1.10;99.90;;;;;;5112945;28;20481;-83
2023/01/15 04:06:48;;;;;;;;;;;1.10;99.90;;;;;;5113045;28;20372;-83
2023/01/15 04:09:13;;;;;;;;;;;1.00;99.90;;;;;;5114181;28;20364;-83
2023/01/15 04:11:39;;;;;;;;;;;1.00;99.90;;;;;;5114215;28;19998;-83
2023/01/15 04:14:05;;;;;;;;;;;1.00;99.90;;;;;;5130086;28;19961;-83
2023/01/15 04:16:31;;;;;;;;;;;1.00;99.90;;;;;;5112939;28;19908;-83
2023/01/15 04:18:57;;;;;;;;;;;1.00;99.90;;;;;;5112884;28;19908;-83
2023/01/15 04:21:23;;;;;;;;;;;1.00;99.90;;;;;;5112862;28;19961;-83
2023/01/15 04:23:48;;;;;;;;;;;1.00;99.90;;;;;;5114079;28;19957;-83
2023/01/15 04:26:14;;;;;;;;;;;1.00;99.90;;;;;;5112684;28;19919;-83
2023/01/15 04:28:40;;;;;;;;;;;1.00;99.90;;;;;;5130093;28;20077;-83
2023/01/15 04:31:05;;;;;;;;;;;1.00;99.90;;;;;;5113016;28;19919;-83
2023/01/15 04:33:31;;;;;;;;;;;1.00;99.90;;;;;;5130079;28;19912;-83
2023/01/15 04:36:00;;;;;;;;;;;1.00;99.90;;;;;;5114037;28;19914;-83
2023/01/15 04:38:26;;;;;;;;;;;1.10;99.90;;;;;;5112823;28;20394;-83
2023/01/15 04:46:21;;;;;;;;;;;1.00;99.90;;;;;;5131390;27;20326;-83
2023/01/15 04:48:46;;;;;;;;;;;1.10;99.90;;;;;;5117708;28;19908;-83
2023/01/15 04:51:12;;;;;;;;;;;1.10;99.90;;;;;;5116858;28;19969;-83
2023/01/15 04:53:37;;;;;;;;;;;1.10;99.90;;;;;;5116960;28;19914;-83
2023/01/15 04:56:04;;;;;;;;;;;1.10;99.90;;;;;;5116472;28;19912;-83
2023/01/15 04:58:29;;;;;;;;;;;1.10;99.90;;;;;;5117544;28;20278;-83
2023/01/15 05:00:55;;;;;;;;;;;1.10;99.90;;;;;;5116363;28;20003;-83
2023/01/15 05:03:20;;;;;;;;;;;1.20;99.90;;;;;;5133368;27;19911;-83
2023/01/15 05:05:46;;;;;;;;;;;1.20;99.90;;;;;;5116049;28;19977;-83
2023/01/15 05:08:12;;;;;;;;;;;1.20;99.90;;;;;;5116015;28;19939;-83
2023/01/15 05:10:37;;;;;;;;;;;1.20;99.90;;;;;;5116144;28;19919;-83
2023/01/15 05:13:03;;;;;;;;;;;1.20;99.90;;;;;;5115944;28;19929;-83
2023/01/15 05:15:28;;;;;;;;;;;1.20;99.90;;;;;;5115921;28;19996;-83
2023/01/15 05:17:55;;;;;;;;;;;1.20;99.90;;;;;;5115949;28;20283;-83
2023/01/15 05:20:20;;;;;;;;;;;1.20;99.90;;;;;;5117221;28;19908;-83
2023/01/15 05:22:46;;;;;;;;;;;1.20;99.90;;;;;;5115876;28;19915;-83
2023/01/15 05:25:11;;;;;;;;;;;1.30;99.90;;;;;;5115623;28;19920;-83
2023/01/15 05:27:37;;;;;;;;;;;1.30;99.90;;;;;;5115665;28;20002;-83
2023/01/15 05:30:03;;;;;;;;;;;1.30;99.90;;;;;;5115777;28;19908;-83
2023/01/15 05:32:29;;;;;;;;;;;1.30;99.90;;;;;;5115541;28;19916;-83
2023/01/15 05:34:54;;;;;;;;;;;1.30;99.90;;;;;;5115567;28;19907;-83
2023/01/15 05:37:20;;;;;;;;;;;1.30;99.90;;;;;;5115514;28;19911;-82
2023/01/15 05:39:45;;;;;;;;;;;1.30;99.90;;;;;;5115597;28;20002;-83
2023/01/15 05:42:11;;;;;;;;;;;1.30;99.90;;;;;;5133307;27;19912;-83
2023/01/15 05:44:37;;;;;;;;;;;1.30;99.90;;;;;;5116605;28;19923;-84
2023/01/15 05:47:04;;;;;;;;;;;1.30;99.90;;;;;;5116281;28;19912;-84
2023/01/15 05:49:30;;;;;;;;;;;1.30;99.90;;;;;;5116367;28;19919;-83
2023/01/15 05:51:57;;;;;;;;;;;1.30;99.90;;;;;;5133602;27;19912;-83
2023/01/15 05:54:23;;;;;;;;;;;1.30;99.90;;;;;;5116348;28;19961;-84
2023/01/15 05:56:49;;;;;;;;;;;1.30;99.90;;;;;;5116790;28;19908;-83
2023/01/15 05:59:16;;;;;;;;;;;1.30;99.90;;;;;;5116776;28;19950;-83
2023/01/15 06:01:42;;;;;;;;;;;1.30;99.90;;;;;;5117258;28;20339;-83
2023/01/15 06:04:09;;;;;;;;;;;1.30;99.90;;;;;;5117109;28;19944;-83
2023/01/15 06:06:35;;;;;;;;;;;1.30;99.90;;;;;;5117058;28;19912;-84
2023/01/15 06:09:00;;;;;;;;;;;1.30;99.90;;;;;;5133686;27;20347;-83
2023/01/15 06:11:26;;;;;;;;;;;1.30;99.90;;;;;;5117150;28;20367;-84
2023/01/15 06:13:52;;;;;;;;;;;1.30;99.90;;;;;;5115476;28;19934;-84
2023/01/15 06:16:18;;;;;;;;;;;1.30;99.90;;;;;;5115509;28;20283;-84
2023/01/15 06:18:44;;;;;;;;;;;1.20;99.90;;;;;;5132734;27;19912;-84
2023/01/15 06:21:10;;;;;;;;;;;1.20;99.90;;;;;;5116175;28;19955;-84
2023/01/15 06:23:37;;;;;;;;;;;1.20;99.90;;;;;;5115039;28;20271;-84
2023/01/15 06:26:04;;;;;;;;;;;1.20;99.90;;;;;;5115118;28;20002;-83
2023/01/15 06:28:29;;;;;;;;;;;1.20;99.90;;;;;;5115412;28;19908;-83
2023/01/15 06:30:55;;;;;;;;;;;1.20;99.90;;;;;;5115640;28;19957;-83
2023/01/15 06:33:21;;;;;;;;;;;1.20;99.90;;;;;;5115315;28;19915;-83
2023/01/15 06:35:46;;;;;;;;;;;1.20;99.90;;;;;;5115072;28;20059;-83
2023/01/15 06:38:12;;;;;;;;;;;1.20;99.90;;;;;;5115315;28;19912;-83
2023/01/15 06:40:38;;;;;;;;;;;1.20;99.90;;;;;;5115007;28;20372;-83
2023/01/15 06:48:32;;;;;;;;;;;1.20;99.90;;;;;;5116406;28;19937;-83
2023/01/15 06:50:59;;;;;;;;;;;1.20;99.90;;;;;;5115247;28;19915;-83
2023/01/15 06:53:24;;;;;;;;;;;1.20;99.90;;;;;;5115092;28;19951;-83
2023/01/15 06:55:50;;;;;;;;;;;1.20;99.90;;;;;;5114951;28;19907;-83
2023/01/15 06:58:16;;;;;;;;;;;1.20;99.90;;;;;;5114888;28;19912;-83
2023/01/15 07:00:43;;;;;;;;;;;1.20;99.90;;;;;;5116412;28;19908;-83
2023/01/15 07:03:13;;;;;;;;;;;1.20;99.90;;;;;;5115345;28;19912;-83
2023/01/15 07:05:39;;;;;;;;;;;1.20;99.90;;;;;;5114612;28;19923;-81
2023/01/15 07:08:04;;;;;;;;;;;1.20;99.90;;;;;;5114340;28;20439;-82
2023/01/15 07:10:30;;;;;;;;;;;1.20;99.90;;;;;;5114141;28;20008;-82
2023/01/15 07:12:55;;;;;;;;;;;1.20;99.90;;;;;;5115244;28;19915;-82
2023/01/15 07:15:21;;;;;;;;;;;1.30;99.90;;;;;;5113852;28;19921;-82
2023/01/15 07:17:46;;;;;;;;;;;1.30;99.90;;;;;;5112281;28;19919;-82
2023/01/15 07:20:12;;;;;;;;;;;1.30;99.90;;;;;;5114296;28;20003;-82
2023/01/15 07:22:38;;;;;;;;;;;1.30;99.90;;;;;;5129524;27;19912;-82
2023/01/15 07:25:03;;;;;;;;;;;1.30;99.90;;;;;;5112356;28;19922;-81
2023/01/15 07:27:29;;;;;;;;;;;1.30;99.90;;;;;;5113918;28;19923;-82
2023/01/15 07:29:54;;;;;;;;;;;1.30;99.90;;;;;;5115126;28;19912;-82
2023/01/15 07:32:20;;;;;;;;;;;1.30;99.90;;;;;;5115113;28;19961;-82
2023/01/15 07:34:46;;;;;;;;;;;1.30;99.90;;;;;;5113952;28;19966;-82
2023/01/15 07:37:11;;;;;;;;;;;1.30;99.90;;;;;;5131074;27;19957;-82
2023/01/15 07:39:37;;;;;;;;;;;1.20;99.90;;;;;;5114881;28;19947;-81
2023/01/15 07:50:17;;;;;;;;;;;1.30;99.90;;;;;;5129250;28;19962;-82
2023/01/15 07:52:42;;;;;;;;;;;1.30;99.90;;;;;;5113799;28;19922;-82
2023/01/15 07:55:09;;;;;;;;;;;1.30;99.90;;;;;;5116220;28;19998;-82
2023/01/15 07:57:35;;;;;;;;;;;1.30;99.90;;;;;;5114824;28;20354;-82
2023/01/15 08:00:00;;;;;;;;;;;1.30;99.90;;;;;;5114959;28;19907;-82
2023/01/15 08:02:26;;;;;;;;;;;1.30;99.90;;;;;;5114226;28;20056;-82
2023/01/15 08:04:52;;;;;;;;;;;1.40;99.90;;;;;;5115088;28;19916;-82
2023/01/15 08:07:17;;;;;;;;;;;1.40;99.90;;;;;;5116764;28;19911;-82
2023/01/15 08:09:43;;;;;;;;;;;1.40;99.90;;;;;;5114282;28;20355;-82
2023/01/15 08:15:11;;;;;;;;;;;1.40;99.90;;;;;;5115931;28;19919;-82
2023/01/15 08:17:38;;;;;;;;;;;1.40;99.90;;;;;;5119110;28;19958;-81
2023/01/15 08:20:05;;;;;;;;;;;1.40;99.90;;;;;;5119165;28;20402;-81
2023/01/15 08:22:31;;;;;;;;;;;1.50;99.90;;;;;;5117743;28;19957;-81
2023/01/15 08:24:56;;;;;;;;;;;1.50;99.90;;;;;;5117047;28;19920;-82
2023/01/15 08:27:22;;;;;;;;;;;1.50;99.90;;;;;;5117098;28;19916;-82
2023/01/15 08:29:47;;;;;;;;;;;1.50;99.90;;;;;;5100285;28;19912;-81
2023/01/15 08:32:13;;;;;;;;;;;1.60;99.90;;;;;;5118611;27;20422;-81
2023/01/15 08:34:38;;;;;;;;;;;1.60;99.90;;;;;;5117250;28;19937;-82
2023/01/15 08:37:04;;;;;;;;;;;1.60;99.90;;;;;;5117488;28;20428;-81
2023/01/15 08:39:30;;;;;;;;;;;1.60;99.90;;;;;;5117530;28;20389;-81
2023/01/15 08:41:56;;;;;;;;;;;1.70;99.90;;;;;;5118819;28;19923;-81
2023/01/15 08:44:22;;;;;;;;;;;1.70;99.90;;;;;;5118726;28;19982;-81
2023/01/15 08:46:48;;;;;;;;;;;1.70;99.90;;;;;;5117904;28;19947;-81
2023/01/15 08:49:14;;;;;;;;;;;1.80;99.90;;;;;;5119170;28;19908;-81
2023/01/15 08:51:40;;;;;;;;;;;1.80;99.90;;;;;;5117847;28;20272;-81
2023/01/15 08:54:05;;;;;;;;;;;1.80;99.90;;;;;;5100499;28;19912;-81
2023/01/15 08:56:31;;;;;;;;;;;1.80;99.90;;;;;;5100418;28;20327;-81
2023/01/15 08:58:56;;;;;;;;;;;1.80;99.90;;;;;;5118100;28;19976;-81
2023/01/15 09:01:22;;;;;;;;;;;1.90;99.90;;;;;;5100184;28;19981;-81
2023/01/15 09:03:48;;;;;;;;;;;1.90;99.90;;;;;;5117978;28;19947;-81
2023/01/15 09:06:13;;;;;;;;;;;1.90;99.90;;;;;;5100235;28;19916;-81
2023/01/15 09:08:39;;;;;;;;;;;2.00;99.90;;;;;;5119146;28;19908;-81
2023/01/15 09:11:08;;;;;;;;;;;2.00;99.90;;;;;;5118689;28;19907;-81
2023/01/15 09:13:35;;;;;;;;;;;2.10;99.90;;;;;;5118807;28;19961;-81
2023/01/15 09:16:05;;;;;;;;;;;2.10;99.90;;;;;;5119678;28;19915;-81
2023/01/15 09:18:31;;;;;;;;;;;2.20;99.90;;;;;;5119181;28;19908;-80
2023/01/15 09:20:57;;;;;;;;;;;2.20;99.90;;;;;;5117832;28;19912;-80
2023/01/15 09:23:22;;;;;;;;;;;2.30;99.90;;;;;;5118782;28;20295;-80
2023/01/15 09:25:58;;;;;;;;;;;2.40;99.90;;;;;;5117296;28;19916;-80
2023/01/15 09:28:24;;;;;;;;;;;2.40;99.90;;;;;;5115937;28;20428;-80
2023/01/15 09:30:50;;;;;;;;;;;2.50;99.90;;;;;;5117243;28;19916;-80
2023/01/15 09:33:16;;;;;;;;;;;2.60;99.90;;;;;;5118823;28;19915;-80
2023/01/15 09:35:42;;;;;;;;;;;2.70;99.90;;;;;;5118318;28;19908;-80
2023/01/15 09:38:10;;;;;;;;;;;2.90;99.90;;;;;;5118399;28;19908;-80
2023/01/15 09:40:55;;;;;;;;;;;3.00;99.90;;;;;;5118162;28;19957;-80
2023/01/15 09:43:38;;;;;;;;;;;3.00;99.90;;;;;;5118442;28;19907;-80
2023/01/15 09:46:08;;;;;;;;;;;3.10;99.90;;;;;;5118021;28;19999;-80
2023/01/15 09:48:42;;;;;;;;;;;3.10;99.90;;;;;;5118227;28;19908;-80
2023/01/15 09:51:15;;;;;;;;;;;3.10;99.90;;;;;;5117853;28;19914;-80
2023/01/15 09:53:41;;;;;;;;;;;3.20;99.90;;;;;;5116574;28;19994;-80
2023/01/15 09:56:10;;;;;;;;;;;3.20;99.90;;;;;;5118254;28;19958;-80
2023/01/15 09:58:37;;;;;;;;;;;3.30;99.90;;;;;;5116491;28;20329;-80
2023/01/15 10:01:03;;;;;;;;;;;3.40;99.90;;;;;;5101366;28;20431;-80
2023/01/15 10:03:37;;;;;;;;;;;3.40;99.90;;;;;;5097228;28;19912;-80
2023/01/15 10:06:08;;;;;;;;;;;3.40;99.90;;;;;;5115025;28;19976;-79
2023/01/15 10:08:36;;;;;;;;;;;3.40;99.90;;;;;;5117995;28;19957;-80
2023/01/15 10:11:03;;;;;;;;;;;3.40;99.90;;;;;;5118089;28;19951;-80
2023/01/15 10:13:47;;;;;;;;;;;3.40;99.90;;;;;;5116115;28;19919;-80
2023/01/15 10:16:24;;;;;;;;;;;3.40;99.90;;;;;;5117335;28;19956;-79
2023/01/15 10:18:50;;;;;;;;;;;3.50;99.90;;;;;;5116996;28;20314;-80
2023/01/15 10:21:22;;;;;;;;;;;3.50;99.90;;;;;;5115555;28;19914;-81
2023/01/15 10:23:47;;;;;;;;;;;3.50;99.90;;;;;;5114887;28;19908;-81
2023/01/15 10:26:22;;;;;;;;;;;3.50;99.90;;;;;;5116742;28;20002;-81
2023/01/15 10:29:12;;;;;;;;;;;3.60;99.90;;;;;;5115610;28;19936;-81
2023/01/15 10:31:54;;;;;;;;;;;3.60;99.90;;;;;;5116601;28;19919;-82
2023/01/15 10:34:19;;;;;;;;;;;3.60;99.90;;;;;;5104578;27;20286;-81
2023/01/15 10:37:00;;;;;;;;;;;3.70;99.90;;;;;;5135129;27;19907;-82
2023/01/15 10:39:45;;;;;;;;;;;3.70;99.90;;;;;;5115675;28;19908;-81
2023/01/15 10:42:11;;;;;;;;;;;3.80;99.90;;;;;;5114372;28;19908;-81
2023/01/15 10:45:01;;;;;;;;;;;3.80;99.90;;;;;;5097054;28;19953;-81
2023/01/15 10:47:33;;;;;;;;;;;3.90;99.90;;;;;;5098188;28;19943;-84
2023/01/15 10:50:00;;;;;;;;;;;3.90;99.90;;;;;;5101167;28;19934;-84
2023/01/15 10:52:28;;;;;;;;;;;4.00;99.90;;;;;;5104842;28;19912;-85
2023/01/15 10:55:00;;;;;;;;;;;4.00;99.90;;;;;;5097884;28;19915;-85
2023/01/15 10:57:49;;;;;;;;;;;4.10;99.90;;;;;;5097633;28;20007;-84
2023/01/15 11:00:15;;;;;;;;;;;4.10;99.90;;;;;;5089870;28;19908;-83
2023/01/15 11:02:43;;;;;;;;;;;4.10;99.90;;;;;;5114366;28;19999;-81
2023/01/15 11:05:15;;;;;;;;;;;4.10;99.90;;;;;;5106526;28;19919;-80
2023/01/15 11:07:43;;;;;;;;;;;4.10;99.90;;;;;;5116328;28;19915;-81
2023/01/15 11:10:14;;;;;;;;;;;4.20;99.90;;;;;;5114919;28;19911;-81
2023/01/15 11:21:20;;;;;;;;;;;4.20;99.90;;;;;;5115292;27;20041;-82
2023/01/15 11:23:46;;;;;;;;;;;4.20;99.90;;;;;;5116291;28;19920;-82
2023/01/15 11:26:16;;;;;;;;;;;4.30;99.90;;;;;;5117056;28;19924;-82
2023/01/15 11:28:42;;;;;;;;;;;4.40;99.90;;;;;;5116325;28;19908;-82
2023/01/15 11:31:09;;;;;;;;;;;4.40;99.90;;;;;;5116720;28;19908;-82
2023/01/15 11:33:34;;;;;;;;;;;4.40;99.90;;;;;;5097485;28;19959;-82
2023/01/15 11:36:02;;;;;;;;;;;4.50;99.90;;;;;;5097253;28;19912;-82
2023/01/15 11:38:29;;;;;;;;;;;4.50;99.90;;;;;;5114623;28;19908;-82
2023/01/15 11:40:59;;;;;;;;;;;4.60;99.90;;;;;;5115864;28;19908;-82
2023/01/15 11:52:09;;;;;;;;;;;4.90;99.90;;;;;;5104226;28;19955;-82
2023/01/15 11:54:40;;;;;;;;;;;4.90;99.90;;;;;;5100913;28;20394;-82
2023/01/15 11:57:05;;;;;;;;;;;4.90;99.90;;;;;;5114023;28;19954;-82
2023/01/15 11:59:31;;;;;;;;;;;4.80;99.90;;;;;;5094988;28;19912;-81
2023/01/15 12:01:58;;;;;;;;;;;4.80;99.90;;;;;;5102766;28;19918;-82
2023/01/15 12:04:36;;;;;;;;;;;4.70;99.90;;;;;;5098661;28;19971;-82
2023/01/15 12:07:02;;;;;;;;;;;4.70;99.90;;;;;;5095876;28;19912;-82
2023/01/15 12:09:40;;;;;;;;;;;4.60;99.90;;;;;;5093683;28;19913;-82
2023/01/15 12:12:06;;;;;;;;;;;4.60;99.90;;;;;;5094731;28;19908;-82
2023/01/15 12:14:44;;;;;;;;;;;4.60;99.90;;;;;;5113189;28;19919;-82
2023/01/15 12:17:12;;;;;;;;;;;4.70;99.90;;;;;;5115536;28;19915;-82
2023/01/15 12:19:50;;;;;;;;;;;4.90;99.90;;;;;;5103677;28;19912;-81
2023/01/15 12:22:16;;;;;;;;;;;4.90;99.90;;;;;;5097016;28;19942;-82
2023/01/15 12:25:02;;;;;;;;;;;4.90;99.90;;;;;;5102861;28;19912;-82
2023/01/15 12:27:30;;;;;;;;;;;4.80;99.90;;;;;;5095051;28;20390;-81
2023/01/15 12:30:14;;;;;;;;;;;4.80;99.90;;;;;;5098551;28;19908;-82
2023/01/15 12:32:42;;;;;;;;;;;4.80;99.90;;;;;;5094836;28;19909;-82
2023/01/15 12:35:27;;;;;;;;;;;4.90;99.90;;;;;;5115505;28;19952;-81
2023/01/15 12:37:55;;;;;;;;;;;4.90;99.90;;;;;;5134227;28;19907;-81
2023/01/15 12:40:25;;;;;;;;;;;4.80;99.90;;;;;;5134895;27;20355;-83
2023/01/15 12:45:37;;;;;;;;;;;5.00;99.90;;;;;;5117271;28;19918;-81
2023/01/15 12:48:19;;;;;;;;;;;5.00;99.90;;;;;;5094417;28;19919;-82
2023/01/15 12:50:49;;;;;;;;;;;5.10;99.90;;;;;;5129502;28;20006;-82
2023/01/15 12:53:24;;;;;;;;;;;5.50;99.90;;;;;;5114260;28;19934;-83
2023/01/15 12:55:52;;;;;;;;;;;6.00;99.90;;;;;;5113372;28;19957;-83
2023/01/15 12:58:37;;;;;;;;;;;6.20;99.90;;;;;;5104339;28;19912;-83
2023/01/15 13:01:04;;;;;;;;;;;6.40;99.90;;;;;;5094352;28;19908;-82
2023/01/15 13:03:33;;;;;;;;;;;6.50;99.90;;;;;;5098003;28;20352;-82
2023/01/15 13:06:04;;;;;;;;;;;6.60;99.90;;;;;;5125451;22;19922;-75
2023/01/15 13:08:29;;;;;;;;;;;6.70;99.90;;;;;;5072823;28;19970;-75
2023/01/15 13:10:55;;;;;;;;;;;6.70;99.90;;;;;;5074875;28;19916;-74
2023/01/15 13:13:23;;;;;;;;;;;6.80;99.90;;;;;;5075703;28;19915;-74
2023/01/15 13:16:16;;;;;;;;;;;6.60;99.90;;;;;;5076434;28;19915;-74
2023/01/15 13:18:42;;;;;;;;;;;6.60;99.90;;;;;;5070569;28;20426;-74
2023/01/15 13:21:11;;;;;;;;;;;6.60;99.90;;;;;;5075102;28;19912;-74
2023/01/15 13:23:43;;;;;;;;;;;6.60;99.90;;;;;;5074991;28;19908;-74
2023/01/15 13:26:25;;;;;;;;;;;6.50;99.90;;;;;;5076176;28;20387;-74
2023/01/15 13:28:59;;;;;;;;;;;6.40;99.90;;;;;;5074832;28;19908;-74
2023/01/15 13:31:31;;;;;;;;;;;6.40;99.90;;;;;;5076143;28;19940;-79
2023/01/15 13:34:00;;;;;;;;;;;6.40;99.90;;;;;;5076467;28;19909;-74
2023/01/15 13:36:30;;;;;;;;;;;6.30;99.90;;;;;;5075985;28;19915;-74
2023/01/15 13:38:59;;;;;;;;;;;6.20;99.90;;;;;;5072082;28;19912;-75
2023/01/15 13:44:31;;;;;;;;;;;6.10;99.90;;;;;;5076446;28;19923;-77
2023/01/15 13:47:04;;;;;;;;;;;6.00;99.90;;;;;;5071666;28;19912;-75
2023/01/15 13:49:34;;;;;;;;;;;5.90;99.90;;;;;;5074653;28;20360;-76
2023/01/15 13:52:03;;;;;;;;;;;5.80;99.90;;;;;;5075011;28;19936;-75
2023/01/15 13:54:30;;;;;;;;;;;5.70;99.90;;;;;;5076060;28;20372;-76
2023/01/15 13:57:06;;;;;;;;;;;5.60;99.90;;;;;;5075536;28;19931;-75
2023/01/15 13:59:42;;;;;;;;;;;5.60;99.90;;;;;;5075899;28;20379;-77
2023/01/15 14:02:24;;;;;;;;;;;5.60;99.90;;;;;;5075682;28;19912;-73
2023/01/15 14:04:52;;;;;;;;;;;5.60;99.90;;;;;;5075972;28;19908;-77
2023/01/15 14:07:31;;;;;;;;;;;5.60;99.90;;;;;;5073645;28;19920;-75
2023/01/15 14:10:08;;;;;;;;;;;5.50;99.90;;;;;;5075558;28;19909;-75
2023/01/15 14:12:41;;;;;;;;;;;5.40;99.90;;;;;;5075231;28;20061;-74
2023/01/15 14:15:15;;;;;;;;;;;5.30;99.90;;;;;;5073428;28;19956;-73
2023/01/15 14:17:43;;;;;;;;;;;5.20;99.90;;;;;;5075619;28;20344;-74
2023/01/15 14:20:17;;;;;;;;;;;5.10;99.90;;;;;;5073518;28;19908;-73
2023/01/15 14:22:46;;;;;;;;;;;5.00;99.90;;;;;;5074932;28;19944;-73
2023/01/15 14:25:13;;;;;;;;;;;5.00;99.90;;;;;;5074206;28;20292;-73
2023/01/15 14:27:50;;;;;;;;;;;4.90;99.90;;;;;;5075551;28;19909;-76
2023/01/15 14:30:48;;;;;;;;;;;4.80;99.90;;;;;;5075035;28;19908;-74
2023/01/15 14:33:27;;;;;;;;;;;4.80;99.90;;;;;;5090276;28;20405;-73
2023/01/15 14:35:53;;;;;;;;;;;4.70;99.90;;;;;;5075531;28;19922;-76
2023/01/15 14:38:23;;;;;;;;;;;4.50;99.90;;;;;;5052814;28;19917;-77
2023/01/15 14:40:53;;;;;;;;;;;4.50;99.90;;;;;;5057182;28;19960;-76
2023/01/15 14:43:20;;;;;;;;;;;4.40;99.90;;;;;;5056634;28;19909;-76
2023/01/15 14:45:48;;;;;;;;;;;4.30;99.90;;;;;;5055085;28;20012;-77
2023/01/15 14:48:34;;;;;;;;;;;4.30;99.90;;;;;;5064308;28;20001;-80
2023/01/15 14:51:08;;;;;;;;;;;4.20;99.90;;;;;;5079613;28;19984;-79
2023/01/15 14:53:43;;;;;;;;;;;4.20;99.90;;;;;;5065145;28;19991;-79
2023/01/15 14:56:21;;;;;;;;;;;4.20;99.90;;;;;;5065419;28;19940;-81
2023/01/15 14:58:50;;;;;;;;;;;4.20;99.90;;;;;;5058490;28;19920;-79
2023/01/15 15:01:20;;;;;;;;;;;4.20;99.90;;;;;;5076369;28;20325;-79
2023/01/15 15:03:55;;;;;;;;;;;4.10;99.90;;;;;;5063934;28;19909;-82
2023/01/15 15:06:21;;;;;;;;;;;4.10;99.90;;;;;;5060990;28;19916;-72
2023/01/15 15:08:48;;;;;;;;;;;4.10;99.90;;;;;;5061400;28;19919;-71
2023/01/15 15:14:06;;;;;;;;;;;4.10;99.90;;;;;;5073954;28;20326;-74
2023/01/15 15:16:35;;;;;;;;;;;4.10;99.90;;;;;;5074990;28;19908;-76
2023/01/15 15:19:05;;;;;;;;;;;4.00;99.90;;;;;;5074806;28;19958;-72
2023/01/15 15:21:42;;;;;;;;;;;4.00;99.90;;;;;;5074040;28;20360;-73
2023/01/15 15:24:23;;;;;;;;;;;3.90;99.90;;;;;;5073982;28;20358;-76
2023/01/15 15:26:49;;;;;;;;;;;3.90;99.90;;;;;;5074302;28;19934;-77
2023/01/15 15:29:16;;;;;;;;;;;3.80;99.90;;;;;;5073700;28;20376;-75
2023/01/15 15:31:43;;;;;;;;;;;3.80;99.90;;;;;;5073156;28;19921;-75